createdAt,value
2023-01-31T09:02:27.046Z,99388.81
2023-01-31T09:04:56.125Z,99396.08
2023-01-31T09:07:25.472Z,99396.59
2023-01-31T09:09:55.714Z,99385.80
2023-01-31T09:12:24.557Z,99387.83
2023-01-31T09:14:54.570Z,99394.41
2023-01-31T09:17:23.138Z,99392.21
2023-01-31T09:19:52.528Z,99399.47
2023-01-31T09:22:22.450Z,99394.75
2023-01-31T09:24:51.074Z,99384.30
2023-01-31T09:27:19.606Z,99391.55
2023-01-31T09:29:49.151Z,99392.77
2023-01-31T09:32:19.869Z,99390.41
2023-01-31T09:34:51.347Z,99386.19
2023-01-31T09:37:20.479Z,99383.99
2023-01-31T09:39:48.982Z,99386.86
2023-01-31T09:42:25.454Z,99382.98
2023-01-31T09:45:05.352Z,99387.88
2023-01-31T09:47:39.054Z,99383.48
2023-01-31T09:50:36.719Z,99388.89
2023-01-31T09:53:15.065Z,99393.96
2023-01-31T09:59:16.171Z,99383.66
2023-01-31T10:02:05.395Z,99397.00
2023-01-31T10:04:53.063Z,99388.89
2023-01-31T10:07:31.843Z,99396.66
2023-01-31T10:10:38.640Z,99387.03
2023-01-31T10:13:31.535Z,99381.97
2023-01-31T10:16:35.659Z,99386.86
2023-01-31T10:19:08.767Z,99394.47
2023-01-31T10:21:47.422Z,99391.25
2023-01-31T10:24:40.715Z,99397.34
2023-01-31T10:27:42.834Z,99383.31
2023-01-31T10:30:19.735Z,99392.61
2023-01-31T10:33:07.767Z,99390.58
2023-01-31T10:35:41.923Z,99384.84
2023-01-31T10:38:25.397Z,99388.38
2023-01-31T10:41:15.759Z,99386.19
2023-01-31T10:43:55.725Z,99378.06
2023-01-31T10:46:24.604Z,99378.23
2023-01-31T10:48:53.535Z,99376.03
2023-01-31T10:51:46.321Z,99381.27
2023-01-31T10:54:24.191Z,99379.92
2023-01-31T10:56:53.099Z,99386.50
2023-01-31T10:59:33.001Z,99375.36
2023-01-31T11:02:02.890Z,99374.16
2023-01-31T11:04:43.892Z,99372.64
2023-01-31T11:07:13.817Z,99376.19
2023-01-31T11:09:54.012Z,99381.11
2023-01-31T11:12:24.832Z,99377.89
2023-01-31T11:15:16.538Z,99375.02
2023-01-31T11:17:46.341Z,99371.30
2023-01-31T11:20:34.645Z,99376.03
2023-01-31T11:23:05.019Z,99372.66
2023-01-31T11:25:34.717Z,99373.33
2023-01-31T11:28:07.499Z,99375.53
2023-01-31T11:30:40.213Z,99372.83
2023-01-31T11:33:14.203Z,99368.27
2023-01-31T11:35:42.871Z,99373.31
2023-01-31T11:38:22.757Z,99375.34
2023-01-31T11:40:52.012Z,99379.06
2023-01-31T11:43:24.874Z,99380.75
2023-01-31T11:46:02.770Z,99386.17
2023-01-31T11:48:43.584Z,99382.80
2023-01-31T11:51:17.587Z,99384.31
2023-01-31T11:53:49.714Z,99381.95
2023-01-31T11:56:27.174Z,99378.74
2023-01-31T11:58:58.286Z,99379.59
2023-01-31T12:01:27.689Z,99369.96
2023-01-31T12:04:03.632Z,99377.05
2023-01-31T12:06:37.018Z,99376.37
2023-01-31T12:09:23.439Z,99376.71
2023-01-31T12:12:06.417Z,99370.29
2023-01-31T12:14:41.932Z,99366.57
2023-01-31T12:17:13.807Z,99377.21
2023-01-31T12:20:25.478Z,99380.59
2023-01-31T12:22:48.765Z,99388.02
2023-01-31T12:25:53.405Z,99376.86
2023-01-31T12:28:39.415Z,99379.56
2023-01-31T12:31:31.435Z,99386.33
2023-01-31T12:34:20.870Z,99380.08
2023-01-31T12:37:21.536Z,99388.21
2023-01-31T12:40:35.609Z,99392.27
2023-01-31T12:43:06.323Z,99397.67
2023-01-31T12:45:52.240Z,99394.80
2023-01-31T12:48:49.535Z,99393.42
2023-01-31T12:51:38.711Z,99400.19
2023-01-31T12:54:27.863Z,99399.37
2023-01-31T12:57:13.527Z,99392.77
2023-01-31T13:00:03.216Z,99389.56
2023-01-31T13:02:43.176Z,99394.28
2023-01-31T13:05:43.557Z,99393.44
2023-01-31T13:08:21.660Z,99392.77
2023-01-31T15:52:56.385Z,99489.34
2023-01-31T15:55:25.708Z,99494.58
2023-01-31T15:57:57.800Z,99490.53
2023-01-31T16:00:36.978Z,99490.20
2023-01-31T16:03:13.836Z,99497.47
2023-01-31T16:05:50.056Z,99499.67
2023-01-31T16:08:29.066Z,99492.42
2023-01-31T16:10:57.772Z,99491.58
2023-01-31T16:13:27.836Z,99488.38
2023-01-31T16:15:56.755Z,99492.44
2023-01-31T16:18:26.027Z,99493.62
2023-01-31T16:20:55.516Z,99493.96
2023-01-31T16:23:34.380Z,99496.67
2023-01-31T16:26:24.906Z,99497.17
2023-01-31T16:29:00.904Z,99498.87
2023-01-31T16:31:33.892Z,99494.64
2023-01-31T16:34:06.020Z,99496.00
2023-01-31T16:36:54.355Z,99494.98
2023-01-31T16:39:37.326Z,99498.87
2023-01-31T16:42:11.200Z,99503.44
2023-01-31T16:44:42.185Z,99501.75
2023-01-31T16:47:47.592Z,99504.12
2023-01-31T16:50:41.818Z,99502.08
2023-01-31T16:53:32.438Z,99504.28
2023-01-31T16:56:21.110Z,99507.83
2023-01-31T16:58:57.666Z,99510.70
2023-01-31T17:01:33.854Z,99509.19
2023-01-31T17:04:13.805Z,99518.64
2023-01-31T17:06:44.017Z,99508.50
2023-01-31T17:09:18.660Z,99514.59
2023-01-31T17:11:48.776Z,99519.66
2023-01-31T17:14:19.015Z,99514.25
2023-01-31T17:16:53.286Z,99516.61
2023-01-31T17:19:23.822Z,99510.36
2023-01-31T17:21:54.534Z,99520.16
2023-01-31T17:24:23.959Z,99519.31
2023-01-31T17:26:55.626Z,99520.16
2023-01-31T17:29:25.770Z,99527.42
2023-01-31T17:31:55.379Z,99523.38
2023-01-31T17:34:25.554Z,99529.95
2023-01-31T17:36:55.515Z,99531.81
2023-01-31T17:39:29.595Z,99533.17
2023-01-31T17:41:59.467Z,99537.05
2023-01-31T17:44:28.682Z,99533.66
2023-01-31T17:46:58.665Z,99530.78
2023-01-31T17:49:29.233Z,99532.62
2023-01-31T17:51:59.128Z,99528.40
2023-01-31T17:54:29.088Z,99527.89
2023-01-31T17:56:58.593Z,99524.84
2023-01-31T17:59:28.255Z,99519.95
2023-01-31T18:01:57.324Z,99513.87
2023-01-31T18:04:27.379Z,99518.76
2023-01-31T18:06:57.565Z,99528.04
2023-01-31T18:09:26.835Z,99524.49
2023-01-31T18:11:56.973Z,99523.82
2023-01-31T18:14:27.137Z,99528.55
2023-01-31T18:16:57.981Z,99529.23
2023-01-31T18:19:28.337Z,99523.33
2023-01-31T18:21:58.718Z,99525.02
2023-01-31T18:24:27.713Z,99537.52
2023-01-31T18:26:57.547Z,99528.40
2023-01-31T18:29:27.084Z,99538.70
2023-01-31T18:31:57.984Z,99533.64
2023-01-31T18:34:30.916Z,99541.91
2023-01-31T18:37:00.484Z,99535.16
2023-01-31T18:39:30.416Z,99540.72
2023-01-31T18:42:00.151Z,99535.83
2023-01-31T18:44:29.510Z,99536.67
2023-01-31T18:46:58.788Z,99538.87
2023-01-31T18:49:28.423Z,99536.50
2023-01-31T18:52:00.034Z,99532.11
2023-01-31T18:54:30.866Z,99538.02
2023-01-31T18:57:00.399Z,99534.47
2023-01-31T18:59:29.761Z,99541.41
2023-01-31T19:01:58.745Z,99537.19
2023-01-31T19:04:30.509Z,99543.44
2023-01-31T19:07:00.614Z,99540.23
2023-01-31T19:09:30.054Z,99553.58
2023-01-31T19:12:01.465Z,99541.92
2023-01-31T19:14:31.356Z,99539.89
2023-01-31T19:17:00.672Z,99543.09
2023-01-31T19:19:29.846Z,99542.59
2023-01-31T19:21:58.723Z,99549.34
2023-01-31T19:24:28.447Z,99545.63
2023-01-31T19:26:59.270Z,99553.06
2023-01-31T19:29:29.320Z,99553.73
2023-01-31T19:31:58.934Z,99550.53
2023-01-31T19:34:29.016Z,99550.02
2023-01-31T19:37:00.043Z,99552.04
2023-01-31T19:39:29.856Z,99553.05
2023-01-31T19:41:59.391Z,99544.77
2023-01-31T19:44:28.615Z,99550.66
2023-01-31T19:46:58.011Z,99553.88
2023-01-31T19:49:30.196Z,99550.33
2023-01-31T19:52:00.921Z,99557.92
2023-01-31T19:54:29.971Z,99550.83
2023-01-31T19:56:59.020Z,99547.78
2023-01-31T19:59:28.900Z,99555.38
2023-01-31T20:01:58.770Z,99560.63
2023-01-31T20:04:29.967Z,99561.81
2023-01-31T20:07:01.019Z,99561.98
2023-01-31T20:09:31.615Z,99557.75
2023-01-31T20:12:02.522Z,99554.87
2023-01-31T20:14:32.210Z,99554.52
2023-01-31T20:17:01.583Z,99551.83
2023-01-31T20:19:32.219Z,99552.17
2023-01-31T20:22:02.040Z,99553.34
2023-01-31T20:24:31.680Z,99560.59
2023-01-31T20:27:01.482Z,99557.39
2023-01-31T20:29:31.322Z,99557.89
2023-01-31T20:32:01.666Z,99560.77
2023-01-31T20:34:34.178Z,99566.49
2023-01-31T20:37:05.165Z,99569.53
2023-01-31T20:39:34.260Z,99569.48
2023-01-31T20:42:03.499Z,99569.31
2023-01-31T20:44:34.653Z,99565.26
2023-01-31T20:47:04.622Z,99563.41
2023-01-31T20:49:34.248Z,99567.29
2023-01-31T20:52:03.752Z,99567.80
2023-01-31T20:54:34.224Z,99567.11
2023-01-31T20:57:03.958Z,99565.77
2023-01-31T20:59:33.825Z,99565.09
2023-01-31T21:02:03.304Z,99561.04
2023-01-31T21:04:32.585Z,99562.73
2023-01-31T21:07:03.471Z,99568.85
2023-01-31T21:09:34.476Z,99567.84
2023-01-31T21:12:07.245Z,99564.98
2023-01-31T21:14:38.360Z,99572.41
2023-01-31T21:17:07.281Z,99570.22
2023-01-31T21:19:37.048Z,99573.26
2023-01-31T21:22:06.210Z,99576.47
2023-01-31T21:24:36.923Z,99568.86
2023-01-31T21:27:08.484Z,99576.45
2023-01-31T21:29:41.212Z,99577.80
2023-01-31T21:32:10.476Z,99580.13
2023-01-31T21:34:41.628Z,99579.66
2023-01-31T21:37:11.075Z,99577.59
2023-01-31T21:39:41.672Z,99576.91
2023-01-31T21:42:13.727Z,99573.52
2023-01-31T21:44:43.989Z,99580.27
2023-01-31T21:47:14.549Z,99574.02
2023-01-31T21:49:43.578Z,99578.75
2023-01-31T21:52:13.646Z,99579.75
2023-01-31T21:54:43.211Z,99572.84
2023-01-31T21:57:12.741Z,99577.90
2023-01-31T21:59:45.249Z,99577.90
2023-01-31T22:02:15.402Z,99575.20
2023-01-31T22:04:44.836Z,99574.86
